Pagina principale
METAR-TAF:

METAR-TAF

Aeroporti :

Jos, Nigeria

latitudine: 09-52N, longitudine: 008-54E, altezza: 1295 m

Osservazione

Il bollettino è stato emesso 4 ore e 47 minuti fa, alle 22:00 UTC
Vento 13 kt da est
Temperature 22°C
Umidità 20%
Pressione 1021 hPa
Visibilità: 3000 m
foschia

METAR: DNJO 232200Z 09013KT 3000 HZ NSC 22/M02 Q1021

Ora: 03:47 (02:47 UTC)

Previsione

Il bollettino è stato emesso 3 ore e 47 minuti fa, alle 23:00 UTC
Previsione valida dal 24 alle 00 UTC al 25 alle 06 UTC
Vento 17 kt da est
Visibilità: 3000 m
foschia
Probabilità 30% :
Temporaneamente
dal 24 alle 03 UTC al 24 alle 10 UTC
Visibilità: 1500 m
Evoluzione graduale
dal 24 alle 10 UTC al 24 alle 13 UTC
Vento 10 kt da nord/nord-est
Visibilità: 5000 m

TAF: DNJO 232300Z 2400/2506 09017KT 3000 HZ NSC PROB30 TEMPO 2403/2410 1500 BECMG 2410/2413 03010KT 5000

Osservazioni e previsioni meteorologiche di più di 4000 aeroporti (messaggi METAR e TAF).

Le stazioni disponibili sono rappresentate dai dischi gialli e rossi sulla carta.

Puntare il mouse per vedere il nome della stazione.

Clicca sopra per visualizzare le osservazioni e previsioni meteorologiche.

Per cambiare la mappa : fare clic sui pulsanti verdi con una croce nera per ingrandire, il pulsante verde con un trattino per diminuire, o sulla freccia verde per le mappe adiacenti.


METAR-TAF: